createdAt,value
2022-08-28T00:00:33.947Z,74.56
2022-08-28T00:01:33.926Z,74.66
2022-08-28T00:02:33.971Z,74.76
2022-08-28T00:03:33.926Z,74.76
2022-08-28T00:04:33.910Z,74.87
2022-08-28T00:05:33.904Z,74.87
2022-08-28T00:06:33.867Z,75.07
2022-08-28T00:07:33.868Z,75.07
2022-08-28T00:08:33.951Z,75.07
2022-08-28T00:09:33.835Z,75.27
2022-08-28T00:10:33.869Z,75.57
2022-08-28T00:11:33.798Z,75.16
2022-08-28T00:12:33.802Z,75.07
2022-08-28T00:13:33.769Z,75.16
2022-08-28T00:14:33.985Z,75.51
2022-08-28T00:15:33.753Z,75.51
2022-08-28T00:16:33.798Z,75.60
2022-08-28T00:17:33.736Z,75.51
2022-08-28T00:18:33.712Z,75.60
2022-08-28T00:19:38.338Z,75.71
2022-08-28T00:20:34.774Z,75.81
2022-08-28T00:21:33.727Z,75.81
2022-08-28T00:22:33.662Z,76.31
2022-08-28T00:23:42.330Z,75.91
2022-08-28T00:24:34.635Z,76.01
2022-08-28T00:25:33.623Z,76.11
2022-08-28T00:26:33.626Z,76.11
2022-08-28T00:27:33.594Z,76.31
2022-08-28T00:28:33.617Z,76.31
2022-08-28T00:29:33.561Z,76.31
2022-08-28T00:30:33.580Z,76.31
2022-08-28T00:31:33.574Z,76.42
2022-08-28T00:32:33.539Z,76.72
2022-08-28T00:33:33.496Z,76.62
2022-08-28T00:34:33.845Z,76.75
2022-08-28T00:35:33.487Z,76.95
2022-08-28T00:36:33.522Z,76.95
2022-08-28T00:37:33.477Z,76.75
2022-08-28T00:38:33.487Z,76.75
2022-08-28T00:39:33.476Z,77.26
2022-08-28T00:40:33.959Z,77.15
2022-08-28T00:41:33.407Z,76.86
2022-08-28T00:42:33.441Z,77.15
2022-08-28T00:43:33.366Z,77.36
2022-08-28T00:44:33.390Z,77.36
2022-08-28T00:45:38.726Z,77.76
2022-08-28T00:46:34.442Z,77.66
2022-08-28T00:47:33.320Z,77.56
2022-08-28T00:48:33.312Z,77.90
2022-08-28T00:49:33.299Z,78.00
2022-08-28T00:50:33.296Z,78.50
2022-08-28T00:51:33.266Z,78.00
2022-08-28T00:52:33.287Z,78.30
2022-08-28T00:53:33.328Z,78.41
2022-08-28T00:54:33.232Z,78.61
2022-08-28T00:55:33.252Z,78.71
2022-08-28T00:56:33.224Z,78.61
2022-08-28T00:57:33.204Z,78.41
2022-08-28T00:58:33.203Z,78.61
2022-08-28T00:59:33.155Z,78.61
2022-08-28T01:00:33.198Z,78.91
2022-08-28T01:01:33.202Z,78.85
2022-08-28T01:02:33.232Z,78.64
2022-08-28T01:03:33.107Z,78.85
2022-08-28T01:04:33.097Z,79.15
2022-08-28T01:05:33.117Z,79.15
2022-08-28T01:06:33.060Z,79.15
2022-08-28T01:07:33.068Z,79.15
2022-08-28T01:08:33.074Z,79.25
2022-08-28T01:09:33.060Z,79.46
2022-08-28T01:10:33.269Z,79.75
2022-08-28T01:11:32.999Z,79.55
2022-08-28T01:12:32.979Z,79.75
2022-08-28T01:13:32.981Z,79.59
2022-08-28T01:14:32.961Z,79.59
2022-08-28T01:15:33.027Z,79.90
2022-08-28T01:16:33.919Z,80.00
2022-08-28T01:17:32.925Z,79.59
2022-08-28T01:18:32.912Z,79.90
2022-08-28T01:19:32.891Z,80.00
2022-08-28T01:20:32.890Z,80.20
2022-08-28T01:21:32.869Z,80.10
2022-08-28T01:22:32.882Z,80.10
2022-08-28T01:23:32.858Z,80.20
2022-08-28T01:24:32.826Z,80.40
2022-08-28T01:25:32.805Z,80.71
2022-08-28T01:26:32.806Z,80.60
2022-08-28T01:27:32.783Z,80.71
2022-08-28T01:28:32.795Z,80.80
2022-08-28T01:29:32.781Z,80.80
2022-08-28T01:30:32.747Z,80.91
2022-08-28T01:31:32.766Z,80.84
2022-08-28T01:32:32.730Z,80.74
2022-08-28T01:33:32.695Z,80.94
2022-08-28T01:34:32.684Z,80.94
2022-08-28T01:35:32.704Z,81.15
2022-08-28T01:36:32.660Z,80.94
2022-08-28T01:37:32.730Z,81.05
2022-08-28T01:38:32.646Z,80.94
2022-08-28T01:39:32.650Z,81.05
2022-08-28T01:40:32.683Z,81.05
2022-08-28T01:41:32.598Z,81.25
2022-08-28T01:42:32.587Z,81.25
2022-08-28T01:43:32.589Z,81.45
2022-08-28T01:44:32.560Z,81.25
2022-08-28T01:45:32.530Z,81.35
2022-08-28T01:46:32.590Z,81.15
2022-08-28T01:47:32.572Z,81.45
2022-08-28T01:48:32.537Z,81.45
2022-08-28T01:49:32.510Z,81.55
2022-08-28T01:50:32.528Z,81.45
2022-08-28T01:51:35.027Z,81.96
2022-08-28T01:52:33.490Z,81.85
2022-08-28T01:53:33.089Z,81.85
2022-08-28T01:54:32.422Z,81.76
2022-08-28T01:55:32.443Z,81.96
2022-08-28T01:56:32.403Z,81.85
2022-08-28T01:57:32.383Z,81.90
2022-08-28T01:58:37.476Z,81.99
2022-08-28T01:59:33.356Z,82.20
2022-08-28T02:00:32.343Z,81.99
2022-08-28T02:01:32.362Z,82.10
2022-08-28T02:02:32.325Z,82.30
2022-08-28T02:03:32.316Z,82.81
2022-08-28T02:04:32.551Z,82.90
2022-08-28T02:05:32.318Z,82.90
2022-08-28T02:06:32.277Z,82.81
2022-08-28T02:07:32.237Z,82.70
2022-08-28T02:08:32.262Z,82.90
2022-08-28T02:09:32.219Z,82.81
2022-08-28T02:10:32.227Z,82.95
2022-08-28T02:11:32.228Z,83.25
2022-08-28T02:12:32.203Z,83.35
2022-08-28T02:13:32.178Z,83.35
2022-08-28T02:14:32.170Z,83.45
2022-08-28T02:15:32.185Z,83.65
2022-08-28T02:16:40.997Z,83.65
2022-08-28T02:17:32.153Z,83.76
2022-08-28T02:18:32.165Z,83.96
2022-08-28T02:19:32.139Z,83.96
2022-08-28T02:20:32.104Z,83.86
2022-08-28T02:21:32.150Z,84.06
2022-08-28T02:22:32.084Z,83.96
2022-08-28T02:23:32.080Z,83.96
2022-08-28T02:24:32.078Z,83.76
2022-08-28T02:25:32.016Z,83.86
2022-08-28T02:26:32.012Z,83.76
2022-08-28T02:27:32.002Z,84.06
2022-08-28T02:28:32.016Z,84.06
2022-08-28T02:29:31.983Z,84.06
2022-08-28T02:30:31.960Z,83.96
2022-08-28T02:31:31.959Z,83.86
2022-08-28T02:32:31.951Z,84.27
2022-08-28T02:33:31.923Z,83.96
2022-08-28T02:34:31.900Z,84.27
2022-08-28T02:35:31.901Z,84.06
2022-08-28T02:36:31.895Z,84.06
2022-08-28T02:37:31.847Z,84.16
2022-08-28T02:38:31.854Z,84.27
2022-08-28T02:39:31.866Z,84.06
2022-08-28T02:40:31.907Z,83.96
2022-08-28T02:41:31.824Z,84.06
2022-08-28T02:42:31.824Z,83.96
2022-08-28T02:43:31.779Z,84.06
2022-08-28T02:44:31.767Z,84.27
2022-08-28T02:45:31.792Z,84.36
2022-08-28T02:46:31.792Z,84.27
2022-08-28T02:47:31.741Z,84.06
2022-08-28T02:48:31.733Z,84.16
2022-08-28T02:49:36.217Z,84.36
2022-08-28T02:50:31.663Z,84.36
2022-08-28T02:51:31.658Z,84.27
2022-08-28T02:52:31.692Z,84.16
2022-08-28T02:53:31.673Z,84.16
2022-08-28T02:54:31.657Z,84.47
2022-08-28T02:55:34.162Z,84.27
2022-08-28T02:56:31.594Z,84.27
2022-08-28T02:57:31.604Z,84.47
2022-08-28T02:58:31.617Z,84.36
2022-08-28T02:59:31.575Z,84.36
2022-08-28T03:00:31.590Z,84.27
2022-08-28T03:01:31.533Z,84.36
2022-08-28T03:02:31.570Z,84.27
2022-08-28T03:03:31.514Z,84.27
2022-08-28T03:04:31.524Z,84.27
2022-08-28T03:05:31.485Z,84.47
2022-08-28T03:06:31.476Z,84.47
2022-08-28T03:07:31.458Z,84.56
2022-08-28T03:08:31.448Z,84.47
2022-08-28T03:09:31.420Z,84.47
2022-08-28T03:10:31.399Z,84.70
2022-08-28T03:11:31.418Z,84.70
2022-08-28T03:12:31.440Z,84.70
2022-08-28T03:13:31.366Z,84.70
2022-08-28T03:14:31.476Z,84.50
2022-08-28T03:15:31.356Z,84.70
2022-08-28T03:16:31.380Z,84.81
2022-08-28T03:17:31.360Z,84.81
2022-08-28T03:18:31.316Z,84.81
2022-08-28T03:19:31.290Z,84.81
2022-08-28T03:20:31.294Z,85.01
2022-08-28T03:21:31.281Z,84.91
2022-08-28T03:22:31.284Z,84.91
2022-08-28T03:23:31.232Z,85.01
2022-08-28T03:24:31.221Z,85.01
2022-08-28T03:25:31.207Z,85.01
2022-08-28T03:26:31.232Z,85.01
2022-08-28T03:27:31.193Z,85.21
2022-08-28T03:28:31.238Z,85.21
2022-08-28T03:29:31.154Z,85.11
2022-08-28T03:30:31.254Z,85.01
2022-08-28T03:31:31.178Z,85.11
2022-08-28T03:32:31.109Z,85.21
2022-08-28T03:33:31.105Z,85.11
2022-08-28T03:34:31.125Z,85.21
2022-08-28T03:35:31.065Z,85.11
2022-08-28T03:36:31.066Z,84.91
2022-08-28T03:37:31.086Z,84.91
2022-08-28T03:38:31.086Z,85.11
2022-08-28T03:39:31.017Z,85.11
2022-08-28T03:40:31.120Z,85.21
2022-08-28T03:41:31.015Z,85.01
2022-08-28T03:42:31.027Z,85.21
2022-08-28T03:43:30.957Z,85.11
2022-08-28T03:44:30.969Z,85.31
2022-08-28T03:45:30.960Z,85.01
2022-08-28T03:46:30.919Z,85.01
2022-08-28T03:47:30.920Z,85.01
2022-08-28T03:48:30.963Z,85.11
2022-08-28T03:49:30.960Z,85.11
2022-08-28T03:50:30.910Z,85.21
2022-08-28T03:51:30.861Z,85.01
2022-08-28T03:52:30.869Z,85.21
2022-08-28T03:53:30.821Z,85.42
2022-08-28T03:54:30.871Z,85.42
2022-08-28T03:55:30.845Z,85.31
2022-08-28T03:56:30.821Z,85.21
2022-08-28T03:57:30.812Z,85.31
2022-08-28T03:58:30.762Z,85.42
2022-08-28T03:59:32.593Z,85.42
2022-08-28T04:00:30.772Z,85.31
2022-08-28T04:01:30.820Z,85.31
2022-08-28T04:02:30.735Z,85.52
2022-08-28T04:03:30.729Z,85.52
2022-08-28T04:04:30.736Z,85.72
2022-08-28T04:05:30.731Z,85.52
2022-08-28T04:06:30.665Z,85.82
2022-08-28T04:07:30.657Z,85.82
2022-08-28T04:08:30.676Z,85.96
2022-08-28T04:09:30.687Z,85.96
2022-08-28T04:10:30.636Z,85.96
2022-08-28T04:11:30.636Z,86.16
2022-08-28T04:12:30.586Z,86.16
2022-08-28T04:13:30.556Z,86.27
2022-08-28T04:14:30.577Z,86.37
2022-08-28T04:15:30.567Z,86.37
2022-08-28T04:16:30.593Z,86.57
2022-08-28T04:17:30.519Z,86.68
2022-08-28T04:18:30.503Z,86.71
2022-08-28T04:19:30.506Z,87.02
2022-08-28T04:20:30.471Z,87.02
2022-08-28T04:21:30.497Z,87.22
2022-08-28T04:22:30.481Z,87.12
2022-08-28T04:23:30.431Z,87.32
2022-08-28T04:24:30.425Z,87.32
2022-08-28T04:25:30.431Z,87.32
2022-08-28T04:26:30.461Z,87.43
2022-08-28T04:27:30.404Z,87.43
2022-08-28T04:28:30.387Z,87.73
2022-08-28T04:29:30.435Z,87.22
2022-08-28T04:30:30.362Z,87.43
2022-08-28T04:31:31.830Z,87.32
2022-08-28T04:32:30.325Z,87.43
2022-08-28T04:33:30.311Z,87.52
2022-08-28T04:34:30.293Z,87.32
2022-08-28T04:35:30.262Z,87.32
2022-08-28T04:36:30.259Z,87.32
2022-08-28T04:37:30.276Z,87.22
2022-08-28T04:38:30.296Z,87.22
2022-08-28T04:39:30.255Z,87.22
2022-08-28T04:40:30.279Z,87.22
2022-08-28T04:41:30.215Z,87.43
2022-08-28T04:42:30.185Z,87.22
2022-08-28T04:43:30.195Z,87.22
2022-08-28T04:44:30.157Z,87.22
2022-08-28T04:45:30.272Z,87.22
2022-08-28T04:46:31.132Z,87.32
2022-08-28T04:47:30.146Z,87.43
2022-08-28T04:48:30.119Z,87.43
2022-08-28T04:49:30.109Z,87.32
2022-08-28T04:50:30.071Z,87.52
2022-08-28T04:51:30.069Z,87.52
2022-08-28T04:52:30.069Z,87.43
2022-08-28T04:53:30.057Z,87.32
2022-08-28T04:54:30.038Z,87.52
2022-08-28T04:55:49.604Z,87.32
2022-08-28T04:56:31.033Z,87.12
2022-08-28T04:57:33.279Z,87.02
2022-08-28T04:58:30.949Z,87.12
2022-08-28T04:59:29.968Z,87.12
2022-08-28T05:00:29.995Z,87.12
2022-08-28T05:01:29.968Z,87.32
2022-08-28T05:02:30.018Z,87.12
2022-08-28T05:03:29.931Z,87.22
2022-08-28T05:04:29.902Z,87.22
2022-08-28T05:05:29.923Z,87.12
2022-08-28T05:06:29.901Z,87.12
2022-08-28T05:07:29.848Z,87.52
2022-08-28T05:08:29.852Z,87.38
2022-08-28T05:09:29.929Z,86.98
2022-08-28T05:10:29.817Z,86.98
2022-08-28T05:11:33.179Z,87.08
2022-08-28T05:12:29.783Z,86.98
2022-08-28T05:13:29.827Z,86.68
2022-08-28T05:14:29.805Z,86.77
2022-08-28T05:15:29.974Z,86.77
2022-08-28T05:16:29.791Z,86.68
2022-08-28T05:17:32.131Z,86.98
2022-08-28T05:18:29.706Z,87.18
2022-08-28T05:19:29.691Z,86.98
2022-08-28T05:20:29.646Z,86.88
2022-08-28T05:21:29.686Z,86.88
2022-08-28T05:22:29.756Z,86.98
2022-08-28T05:23:29.660Z,86.98
2022-08-28T05:24:29.668Z,87.08
2022-08-28T05:25:29.627Z,86.88
2022-08-28T05:26:30.034Z,86.88
2022-08-28T05:27:29.628Z,87.08
2022-08-28T05:28:29.762Z,86.98
2022-08-28T05:29:29.721Z,86.77
2022-08-28T05:30:29.688Z,86.57
2022-08-28T05:31:29.627Z,86.57
2022-08-28T05:32:30.776Z,86.77
2022-08-28T05:33:29.633Z,86.88
2022-08-28T05:34:29.573Z,86.73
2022-08-28T05:35:29.557Z,86.43
2022-08-28T05:36:32.870Z,86.43
2022-08-28T05:37:29.470Z,86.33
2022-08-28T05:38:29.464Z,86.43
2022-08-28T05:39:29.410Z,86.33
2022-08-28T05:40:29.524Z,86.02
2022-08-28T05:41:29.412Z,85.93
2022-08-28T05:42:30.995Z,85.93
2022-08-28T05:43:29.415Z,85.82
2022-08-28T05:44:29.376Z,85.93
2022-08-28T05:45:29.350Z,85.82
2022-08-28T05:46:29.301Z,85.82
2022-08-28T05:47:29.330Z,85.62
2022-08-28T05:48:30.452Z,85.82
2022-08-28T05:49:30.278Z,86.02
2022-08-28T05:50:29.275Z,85.93
2022-08-28T05:51:29.270Z,85.82
2022-08-28T05:52:29.254Z,85.93
2022-08-28T05:53:29.387Z,85.42
2022-08-28T05:54:29.296Z,85.82
2022-08-28T05:55:29.305Z,85.62
2022-08-28T05:56:29.362Z,85.72
2022-08-28T05:57:29.223Z,85.52
2022-08-28T05:58:29.219Z,85.72
2022-08-28T05:59:29.151Z,85.58
2022-08-28T06:00:29.118Z,85.68
2022-08-28T06:01:29.186Z,85.27
2022-08-28T06:02:29.116Z,85.17
2022-08-28T06:03:29.140Z,85.27
2022-08-28T06:04:29.161Z,85.17
2022-08-28T06:05:29.085Z,85.17
2022-08-28T06:06:29.055Z,84.63
2022-08-28T06:07:29.032Z,84.42
2022-08-28T06:08:29.056Z,84.33
2022-08-28T06:09:30.059Z,84.63
2022-08-28T06:10:28.991Z,84.73
2022-08-28T06:11:30.865Z,84.73
2022-08-28T06:12:29.013Z,84.63
2022-08-28T06:13:28.965Z,84.53
2022-08-28T06:14:28.965Z,84.22
2022-08-28T06:15:29.145Z,84.22
2022-08-28T06:16:28.969Z,84.12
2022-08-28T06:17:28.933Z,84.22
2022-08-28T06:18:28.913Z,84.22
2022-08-28T06:19:28.899Z,84.12
2022-08-28T06:20:28.876Z,84.12
2022-08-28T06:21:29.035Z,83.92
2022-08-28T06:22:28.868Z,83.98
2022-08-28T06:23:28.853Z,83.98
2022-08-28T06:24:28.849Z,83.78
2022-08-28T06:25:28.875Z,83.98
2022-08-28T06:26:28.774Z,83.68
2022-08-28T06:27:28.793Z,83.47
2022-08-28T06:28:28.757Z,83.58
2022-08-28T06:29:28.756Z,82.87
2022-08-28T06:30:28.730Z,82.97
2022-08-28T06:31:33.021Z,82.97
2022-08-28T06:32:28.928Z,82.97
2022-08-28T06:33:29.077Z,83.27
2022-08-28T06:34:28.943Z,83.13
2022-08-28T06:35:28.725Z,82.67
2022-08-28T06:36:28.669Z,82.87
2022-08-28T06:37:28.650Z,82.87
2022-08-28T06:38:28.690Z,82.87
2022-08-28T06:39:28.616Z,83.07
2022-08-28T06:40:28.672Z,82.56
2022-08-28T06:41:28.579Z,83.07
2022-08-28T06:42:28.559Z,83.07
2022-08-28T06:43:28.657Z,83.17
2022-08-28T06:44:28.564Z,83.68
2022-08-28T06:45:28.552Z,83.47
2022-08-28T06:46:28.551Z,83.44
2022-08-28T06:47:28.512Z,83.44
2022-08-28T06:48:28.503Z,83.23
2022-08-28T06:49:28.523Z,82.93
2022-08-28T06:50:28.473Z,83.33
2022-08-28T06:51:28.444Z,83.23
2022-08-28T06:52:28.464Z,83.44
2022-08-28T06:53:28.434Z,83.23
2022-08-28T06:54:28.407Z,83.03
2022-08-28T06:55:28.405Z,82.93
2022-08-28T06:56:28.378Z,82.93
2022-08-28T06:57:28.385Z,82.73
2022-08-28T06:58:28.385Z,83.74
2022-08-28T06:59:28.342Z,83.54
2022-08-28T07:00:28.337Z,82.99
2022-08-28T07:01:28.513Z,82.28
2022-08-28T07:02:28.627Z,82.39
2022-08-28T07:03:28.339Z,82.59
2022-08-28T07:04:28.329Z,82.08
2022-08-28T07:05:28.288Z,81.98
2022-08-28T07:06:28.234Z,80.93
2022-08-28T07:07:31.740Z,81.13
2022-08-28T07:08:28.246Z,80.93
2022-08-28T07:09:28.249Z,81.13
2022-08-28T07:10:28.182Z,80.39
2022-08-28T07:11:28.197Z,80.32
2022-08-28T07:12:28.194Z,80.79
2022-08-28T07:13:32.127Z,79.79
2022-08-28T07:14:29.190Z,79.58
2022-08-28T07:15:28.180Z,79.68
2022-08-28T07:16:28.121Z,80.49
2022-08-28T07:17:28.122Z,79.68
2022-08-28T07:18:28.104Z,79.38
2022-08-28T07:19:28.129Z,79.24
2022-08-28T07:20:28.092Z,79.14
2022-08-28T07:21:28.162Z,78.63
2022-08-28T07:22:28.035Z,78.84
2022-08-28T07:23:28.051Z,78.90
2022-08-28T07:24:28.324Z,78.80
2022-08-28T07:25:28.027Z,78.30
2022-08-28T07:26:27.995Z,78.30
2022-08-28T07:27:27.955Z,78.30
2022-08-28T07:28:27.974Z,79.00
2022-08-28T07:29:28.022Z,78.59
2022-08-28T07:30:27.956Z,77.28
2022-08-28T07:31:28.031Z,77.59
2022-08-28T07:32:27.935Z,77.28
2022-08-28T07:33:27.879Z,76.75
2022-08-28T07:34:27.894Z,75.84
2022-08-28T07:35:27.857Z,75.63
2022-08-28T07:36:28.830Z,75.03
2022-08-28T07:37:27.853Z,75.47
2022-08-28T07:38:27.879Z,76.38
2022-08-28T07:39:27.887Z,76.28
2022-08-28T07:40:27.840Z,75.98
2022-08-28T07:41:27.867Z,76.28
2022-08-28T07:42:27.793Z,76.38
2022-08-28T07:43:27.825Z,76.68
2022-08-28T07:44:27.776Z,75.77
2022-08-28T07:45:27.807Z,76.28
2022-08-28T07:46:27.786Z,76.88
2022-08-28T07:47:27.693Z,76.07
2022-08-28T07:48:27.732Z,76.42
2022-08-28T07:49:27.661Z,76.51
2022-08-28T07:50:27.671Z,76.51
2022-08-28T07:51:27.663Z,76.72
2022-08-28T07:52:27.662Z,76.62
2022-08-28T07:53:27.607Z,76.72
2022-08-28T07:54:27.634Z,76.07
2022-08-28T07:55:27.608Z,76.18
2022-08-28T07:56:27.564Z,76.38
2022-08-28T07:57:27.594Z,76.38
2022-08-28T07:58:27.565Z,75.94
2022-08-28T07:59:29.593Z,75.54
2022-08-28T08:00:28.535Z,75.63
2022-08-28T08:01:27.552Z,74.43
2022-08-28T08:02:27.597Z,73.82
2022-08-28T08:03:27.670Z,73.92
2022-08-28T08:04:27.603Z,73.18
2022-08-28T08:05:27.518Z,72.78
2022-08-28T08:06:28.025Z,72.67
2022-08-28T08:07:28.452Z,72.67
2022-08-28T08:08:27.696Z,72.38
2022-08-28T08:09:27.579Z,72.07
2022-08-28T08:10:27.466Z,72.47
2022-08-28T08:11:28.434Z,71.94
2022-08-28T08:12:27.925Z,71.70
2022-08-28T08:13:27.370Z,70.70
2022-08-28T08:14:27.361Z,70.90
2022-08-28T08:15:31.146Z,71.10
2022-08-28T08:16:27.301Z,70.62
2022-08-28T08:18:42.477Z,69.89
2022-08-28T08:19:42.782Z,69.15
2022-08-28T08:20:42.281Z,69.56
2022-08-28T08:21:42.339Z,68.75
2022-08-28T08:22:42.177Z,68.08
2022-08-28T08:23:42.191Z,66.87
2022-08-28T08:24:42.079Z,66.67
2022-08-28T08:25:42.090Z,67.54
2022-08-28T08:26:42.118Z,67.84
2022-08-28T08:27:48.641Z,68.04
2022-08-28T08:28:42.156Z,68.38
2022-08-28T08:29:42.036Z,68.58
2022-08-28T08:30:42.050Z,68.38
2022-08-28T08:31:43.971Z,68.48
2022-08-28T08:32:42.060Z,68.48
2022-08-28T08:33:42.658Z,68.98
2022-08-28T08:34:41.931Z,69.29
2022-08-28T08:35:41.960Z,69.79
2022-08-28T08:36:41.893Z,68.98
2022-08-28T08:37:42.001Z,68.58
2022-08-28T08:38:41.880Z,68.58
2022-08-28T08:39:41.930Z,68.65
2022-08-28T08:40:41.956Z,68.65
2022-08-28T08:41:41.881Z,68.24
2022-08-28T08:42:41.881Z,68.65
2022-08-28T08:43:41.829Z,68.24
2022-08-28T08:44:41.843Z,68.35
2022-08-28T08:45:41.784Z,67.91
2022-08-28T08:46:41.868Z,67.91
2022-08-28T08:47:41.820Z,68.01
2022-08-28T08:48:41.910Z,68.11
2022-08-28T08:49:41.729Z,67.91
2022-08-28T08:50:41.753Z,67.64
2022-08-28T08:51:41.702Z,68.55
2022-08-28T08:52:41.786Z,68.15
2022-08-28T08:53:41.656Z,68.55
2022-08-28T08:54:41.751Z,68.35
2022-08-28T08:55:41.703Z,67.54
2022-08-28T08:56:41.644Z,68.24
2022-08-28T08:57:41.668Z,67.61
2022-08-28T08:58:41.638Z,67.31
2022-08-28T08:59:41.600Z,68.11
2022-08-28T09:00:41.569Z,67.68
2022-08-28T09:01:41.621Z,66.77
2022-08-28T09:02:41.562Z,66.47
2022-08-28T09:03:44.148Z,66.77
2022-08-28T09:04:41.541Z,66.27
2022-08-28T09:05:41.527Z,66.07
2022-08-28T09:06:41.494Z,66.24
2022-08-28T09:07:41.492Z,65.64
2022-08-28T09:08:41.516Z,66.03
2022-08-28T09:09:41.476Z,66.14
2022-08-28T09:10:41.424Z,66.47
2022-08-28T09:11:41.436Z,66.77
2022-08-28T09:12:41.391Z,67.14
2022-08-28T09:13:41.414Z,66.74
2022-08-28T09:14:41.416Z,66.41
2022-08-28T09:15:42.708Z,65.30
2022-08-28T09:16:42.415Z,65.10
2022-08-28T09:17:41.383Z,65.17
2022-08-28T09:18:41.365Z,64.87
2022-08-28T09:19:41.405Z,64.60
2022-08-28T09:20:41.290Z,65.70
2022-08-28T09:21:41.281Z,64.00
2022-08-28T09:22:41.271Z,64.73
2022-08-28T09:23:41.269Z,65.84
2022-08-28T09:24:41.269Z,65.44
2022-08-28T09:25:41.283Z,65.77
2022-08-28T09:26:41.225Z,66.17
2022-08-28T09:27:41.216Z,66.57
2022-08-28T09:28:41.424Z,66.20
2022-08-28T09:29:41.218Z,66.60
2022-08-28T09:30:41.273Z,66.60
2022-08-28T09:31:41.160Z,67.47
2022-08-28T09:32:41.180Z,66.40
2022-08-28T09:33:41.758Z,66.20
2022-08-28T09:34:41.118Z,66.80
2022-08-28T09:35:41.175Z,66.91
2022-08-28T09:36:41.089Z,66.27
2022-08-28T09:37:41.151Z,65.36
2022-08-28T09:38:41.164Z,65.56
2022-08-28T09:39:41.113Z,65.56
2022-08-28T09:40:41.091Z,66.07
2022-08-28T09:41:41.335Z,65.87
2022-08-28T09:42:40.985Z,64.76
2022-08-28T09:43:41.013Z,65.47
2022-08-28T09:44:40.966Z,65.16
2022-08-28T09:45:40.992Z,65.36
2022-08-28T09:46:40.962Z,65.03
2022-08-28T09:47:46.684Z,64.76
2022-08-28T09:48:41.897Z,65.36
2022-08-28T09:49:40.907Z,64.96
2022-08-28T09:50:40.907Z,65.36
2022-08-28T09:51:40.894Z,65.03
2022-08-28T09:52:40.861Z,64.23
2022-08-28T09:53:40.838Z,64.63
2022-08-28T09:54:40.819Z,63.82
2022-08-28T09:55:40.827Z,63.90
2022-08-28T09:56:40.791Z,64.60
2022-08-28T09:57:40.811Z,64.10
2022-08-28T09:58:40.767Z,63.70
2022-08-28T09:59:40.832Z,63.39
2022-08-28T10:00:40.742Z,63.87
2022-08-28T10:01:40.809Z,63.96
2022-08-28T10:02:40.760Z,63.26
2022-08-28T10:03:40.723Z,62.83
2022-08-28T10:04:40.764Z,62.83
2022-08-28T10:05:40.667Z,62.73
2022-08-28T10:06:43.703Z,62.60
2022-08-28T10:07:40.656Z,62.60
2022-08-28T10:08:40.640Z,62.37
2022-08-28T10:09:43.653Z,61.67
2022-08-28T10:10:41.633Z,61.47
2022-08-28T10:11:44.235Z,60.86
2022-08-28T10:12:40.625Z,61.27
2022-08-28T10:13:40.564Z,60.66
2022-08-28T10:14:40.649Z,60.53
2022-08-28T10:15:43.365Z,61.64
2022-08-28T10:16:40.611Z,61.04
2022-08-28T10:17:40.562Z,61.44
2022-08-28T10:18:40.548Z,61.64
2022-08-28T10:19:40.478Z,61.04
2022-08-28T10:20:40.484Z,61.24
2022-08-28T10:21:40.468Z,60.74
2022-08-28T10:22:40.527Z,60.84
2022-08-28T10:23:40.430Z,61.47
2022-08-28T10:24:40.410Z,61.67
2022-08-28T10:25:40.423Z,61.44
2022-08-28T10:26:40.440Z,61.14
2022-08-28T10:27:40.403Z,60.27
2022-08-28T10:28:40.379Z,61.17
2022-08-28T10:29:40.347Z,61.67
2022-08-28T10:30:40.453Z,61.57
2022-08-28T10:31:40.328Z,60.66
2022-08-28T10:32:40.347Z,60.66
2022-08-28T10:33:40.311Z,60.27
2022-08-28T10:34:40.281Z,60.24
2022-08-28T10:35:40.284Z,59.64
2022-08-28T10:36:40.313Z,58.94
2022-08-28T10:37:40.257Z,59.33
2022-08-28T10:38:40.225Z,59.83
2022-08-28T10:39:40.256Z,60.03
2022-08-28T10:40:40.328Z,59.44
2022-08-28T10:41:40.201Z,59.03
2022-08-28T10:42:40.195Z,59.23
2022-08-28T10:43:40.156Z,58.94
2022-08-28T10:44:40.170Z,59.33
2022-08-28T10:45:40.127Z,59.13
2022-08-28T10:46:40.227Z,59.20
2022-08-28T10:47:40.111Z,59.11
2022-08-28T10:48:40.109Z,59.00
2022-08-28T10:49:40.080Z,59.18
2022-08-28T10:50:40.345Z,59.18
2022-08-28T10:51:43.597Z,58.35
2022-08-28T10:52:40.111Z,57.75
2022-08-28T10:53:40.048Z,57.45
2022-08-28T10:54:40.008Z,57.75
2022-08-28T10:55:40.001Z,57.87
2022-08-28T10:56:40.264Z,57.87
2022-08-28T10:57:40.181Z,58.00
2022-08-28T10:58:39.972Z,58.30
2022-08-28T10:59:42.071Z,58.81
2022-08-28T11:00:39.958Z,59.41
2022-08-28T11:01:40.007Z,59.00
2022-08-28T11:02:39.978Z,58.48
2022-08-28T11:03:39.914Z,58.28
2022-08-28T11:04:39.907Z,58.18
2022-08-28T11:05:39.925Z,57.87
2022-08-28T11:06:39.888Z,57.70
2022-08-28T11:07:39.835Z,58.70
2022-08-28T11:08:39.843Z,58.81
2022-08-28T11:09:39.816Z,58.61
2022-08-28T11:10:39.838Z,57.70
2022-08-28T11:11:39.808Z,57.80
2022-08-28T11:12:39.815Z,58.18
2022-08-28T11:13:39.823Z,58.07
2022-08-28T11:14:48.120Z,58.05
2022-08-28T11:15:40.747Z,57.65
2022-08-28T11:16:40.378Z,57.45
2022-08-28T11:17:39.713Z,57.17
2022-08-28T11:18:39.691Z,56.77
2022-08-28T11:19:43.852Z,57.24
2022-08-28T11:20:39.684Z,56.85
2022-08-28T11:21:39.684Z,56.45
2022-08-28T11:22:39.645Z,56.65
2022-08-28T11:23:39.727Z,56.35
2022-08-28T11:24:39.654Z,56.62
2022-08-28T11:25:39.641Z,56.52
2022-08-28T11:26:39.594Z,56.39
2022-08-28T11:27:39.573Z,56.16
2022-08-28T11:28:39.555Z,55.97
2022-08-28T11:29:39.555Z,55.04
2022-08-28T11:30:39.588Z,55.07
2022-08-28T11:31:39.532Z,56.07
2022-08-28T11:32:46.875Z,55.07
2022-08-28T11:33:40.615Z,55.57
2022-08-28T11:34:39.476Z,55.09
2022-08-28T11:35:39.481Z,55.79
2022-08-28T11:36:39.447Z,55.69
2022-08-28T11:37:39.427Z,55.72
2022-08-28T11:38:39.426Z,56.32
2022-08-28T11:39:39.430Z,56.82
2022-08-28T11:40:39.638Z,57.02
2022-08-28T11:41:39.419Z,56.02
2022-08-28T11:42:39.370Z,56.02
2022-08-28T11:43:39.351Z,55.99
2022-08-28T11:44:39.348Z,55.57
2022-08-28T11:45:40.042Z,54.47
2022-08-28T11:46:39.379Z,54.86
2022-08-28T11:47:39.341Z,55.36
2022-08-28T11:48:39.319Z,55.17
2022-08-28T11:49:39.282Z,54.57
2022-08-28T11:50:39.262Z,54.47
2022-08-28T11:51:39.292Z,55.66
2022-08-28T11:52:39.235Z,54.54
2022-08-28T11:53:39.234Z,54.64
2022-08-28T11:54:39.217Z,54.44
2022-08-28T11:55:39.194Z,54.64
2022-08-28T11:56:39.178Z,54.44
2022-08-28T11:57:39.186Z,53.52
2022-08-28T11:58:39.150Z,53.69
2022-08-28T11:59:40.086Z,53.59
2022-08-28T12:00:39.116Z,52.87
2022-08-28T12:01:39.161Z,52.02
2022-08-28T12:02:39.171Z,51.52
2022-08-28T12:03:39.099Z,51.03
2022-08-28T12:04:39.177Z,51.42
2022-08-28T12:05:39.079Z,51.52
2022-08-28T12:06:39.078Z,51.52
2022-08-28T12:07:39.010Z,51.84
2022-08-28T12:08:39.007Z,51.54
2022-08-28T12:09:39.030Z,52.76
2022-08-28T12:10:39.018Z,52.49
2022-08-28T12:11:38.970Z,52.42
2022-08-28T12:12:39.003Z,53.31
2022-08-28T12:13:39.005Z,53.84
2022-08-28T12:14:38.943Z,53.94
2022-08-28T12:15:39.002Z,54.11
2022-08-28T12:16:38.905Z,53.12
2022-08-28T12:17:38.958Z,52.52
2022-08-28T12:18:38.877Z,51.40
2022-08-28T12:19:41.582Z,51.59
2022-08-28T12:20:39.875Z,51.62
2022-08-28T12:21:38.884Z,52.09
2022-08-28T12:22:38.835Z,51.03
2022-08-28T12:23:38.808Z,50.65
2022-08-28T12:24:38.806Z,50.52
2022-08-28T12:25:38.794Z,50.55
2022-08-28T12:26:38.823Z,50.85
2022-08-28T12:27:38.765Z,49.28
2022-08-28T12:28:38.748Z,48.02
2022-08-28T12:29:38.733Z,46.58
2022-08-28T12:30:38.974Z,46.06
2022-08-28T12:31:38.709Z,45.72
2022-08-28T12:32:38.765Z,45.52
2022-08-28T12:33:38.670Z,46.04
2022-08-28T12:34:38.694Z,46.56
2022-08-28T12:35:38.781Z,47.89
2022-08-28T12:36:38.799Z,47.77
2022-08-28T12:37:51.066Z,47.05
2022-08-28T12:38:39.710Z,47.30
2022-08-28T12:39:38.601Z,47.50
2022-08-28T12:40:38.657Z,46.68
2022-08-28T12:41:38.574Z,46.14
2022-08-28T12:42:38.569Z,45.74
2022-08-28T12:43:41.632Z,45.42
2022-08-28T12:44:39.559Z,45.89
2022-08-28T12:45:38.627Z,48.21
2022-08-28T12:46:38.607Z,50.67
2022-08-28T12:47:38.627Z,51.05
2022-08-28T12:48:38.513Z,49.08
2022-08-28T12:49:38.510Z,48.22
2022-08-28T12:50:38.488Z,46.93
2022-08-28T12:51:38.492Z,45.79
2022-08-28T12:52:38.421Z,45.00
2022-08-28T12:53:38.420Z,44.93